Time;durP1;ratioP1;P1;durP2;ratioP2;P2;SDS_P1;SDS_P2;PMS_P1;PMS_P2;Temp;Humidity;BMP_temperature;BMP_pressure;BME280_temperature;BME280_humidity;BME280_pressure;Samples;Min_cycle;Max_cycle;Signal;HPM_P1;HPM_P2
2022/08/29 00:00:26;;;;;;;16.63;5.53;;;;;;;17.82;88.16;101931.44;5012306;28;20602;-80
2022/08/29 00:02:54;;;;;;;16.23;5.27;;;;;;;17.74;88.55;101926.19;5013444;28;20214;-79
2022/08/29 00:05:23;;;;;;;18.40;6.17;;;;;;;17.69;88.58;101930.47;5013480;28;20195;-79
2022/08/29 00:07:48;;;;;;;22.37;5.97;;;;;;;17.70;88.90;101923.56;5023570;28;20302;-80
2022/08/29 00:10:14;;;;;;;16.47;6.20;;;;;;;17.74;89.08;101923.59;5014615;28;20276;-80
2022/08/29 00:12:41;;;;;;;15.97;5.60;;;;;;;17.72;89.41;101924.44;5015095;28;20191;-79
2022/08/29 00:15:08;;;;;;;17.03;5.63;;;;;;;17.69;89.43;101930.47;5011085;28;20988;-80
2022/08/29 00:17:34;;;;;;;14.07;5.47;;;;;;;17.66;89.17;101925.28;5027897;28;20203;-80
2022/08/29 00:20:00;;;;;;;18.13;5.73;;;;;;;17.67;89.04;101921.81;5030698;28;20245;-80
2022/08/29 00:22:25;;;;;;;11.23;5.30;;;;;;;17.64;88.94;101929.56;5023294;28;20192;-79
2022/08/29 00:24:51;;;;;;;12.90;5.30;;;;;;;17.64;88.95;101924.38;5015439;28;20187;-79
2022/08/29 00:27:16;;;;;;;14.77;5.47;;;;;;;17.66;89.22;101930.47;5016345;28;20873;-79
2022/08/29 00:29:42;;;;;;;17.83;5.50;;;;;;;17.66;89.29;101927.88;5012639;28;20241;-80
2022/08/29 00:32:08;;;;;;;15.67;5.80;;;;;;;17.67;89.25;101931.31;5019721;28;20199;-80
2022/08/29 00:34:33;;;;;;;16.93;5.70;;;;;;;17.66;89.28;101937.34;5014578;28;20262;-80
2022/08/29 00:36:59;;;;;;;18.80;6.17;;;;;;;17.66;89.11;101942.53;5014435;28;20243;-79
2022/08/29 00:39:24;;;;;;;16.97;5.37;;;;;;;17.67;88.96;101936.50;5014626;28;20201;-79
2022/08/29 00:41:50;;;;;;;14.50;5.50;;;;;;;17.68;89.04;101936.50;5030652;28;20187;-78
2022/08/29 00:44:35;;;;;;;16.63;5.93;;;;;;;17.67;89.17;101932.19;5015141;28;20198;-79
2022/08/29 00:47:08;;;;;;;15.17;5.23;;;;;;;17.67;89.14;101942.56;5014556;28;20220;-79
2022/08/29 00:49:40;;;;;;;14.77;5.30;;;;;;;17.66;89.17;101937.34;5016112;28;20199;-79
2022/08/29 00:52:12;;;;;;;20.13;6.00;;;;;;;17.62;89.28;101936.47;5017085;28;20202;-79
2022/08/29 00:54:39;;;;;;;13.83;5.60;;;;;;;17.64;89.29;101934.75;5026136;28;20187;-80
2022/08/29 00:57:06;;;;;;;13.60;5.90;;;;;;;17.62;89.46;101939.06;5029173;28;20214;-79
2022/08/29 00:59:35;;;;;;;14.27;5.60;;;;;;;17.65;89.34;101935.63;5015423;28;20187;-80
2022/08/29 01:02:03;;;;;;;18.57;5.90;;;;;;;17.61;89.75;101933.84;5015657;28;20183;-79
2022/08/29 01:04:29;;;;;;;13.90;5.63;;;;;;;17.61;89.90;101936.44;5017102;28;20270;-79
2022/08/29 01:06:55;;;;;;;13.77;5.87;;;;;;;17.59;90.27;101943.34;5015509;28;20214;-80
2022/08/29 01:09:23;;;;;;;17.83;6.27;;;;;;;17.64;90.21;101936.47;5003453;28;20297;-79
2022/08/29 01:14:35;;;;;;;14.90;6.17;;;;;;;17.65;90.12;101941.69;5015872;28;20197;-79
2022/08/29 01:17:02;;;;;;;14.90;5.60;;;;;;;17.67;90.21;101939.97;5019572;28;20246;-80
2022/08/29 01:20:02;;;;;;;13.97;5.30;;;;;;;17.67;90.42;101944.25;5016636;28;20245;-79
2022/08/29 01:22:42;;;;;;;20.57;6.03;;;;;;;17.67;90.05;101934.78;5013944;28;20210;-79
2022/08/29 01:25:13;;;;;;;14.17;5.57;;;;;;;17.69;90.46;101939.97;5026610;28;20186;-79
2022/08/29 01:27:43;;;;;;;13.93;5.17;;;;;;;17.68;90.66;101939.09;5013163;28;20842;-79
2022/08/29 01:30:09;;;;;;;15.60;5.10;;;;;;;17.70;90.58;101940.00;5014021;28;20194;-79
2022/08/29 01:32:35;;;;;;;13.17;5.80;;;;;;;17.71;90.60;101940.84;5016145;28;20274;-80
2022/08/29 01:35:01;;;;;;;14.77;5.63;;;;;;;17.71;90.71;101943.44;5014996;28;20609;-80
2022/08/29 01:37:30;;;;;;;16.20;5.77;;;;;;;17.72;90.92;101947.75;5015090;28;20207;-79
2022/08/29 01:39:55;;;;;;;15.97;6.17;;;;;;;17.74;90.61;101943.47;5009929;28;20230;-79
2022/08/29 01:42:23;;;;;;;12.40;6.03;;;;;;;17.74;90.90;101951.25;5005201;28;20187;-80
2022/08/29 01:44:53;;;;;;;15.53;6.50;;;;;;;17.76;91.34;101954.69;5008357;28;20254;-79
2022/08/29 01:47:19;;;;;;;17.57;5.93;;;;;;;17.76;91.05;101957.28;5009974;28;20223;-79
2022/08/29 01:49:45;;;;;;;17.77;5.97;;;;;;;17.78;90.94;101953.84;5013215;28;20237;-80
2022/08/29 01:52:11;;;;;;;18.37;6.47;;;;;;;17.77;90.59;101954.72;5010967;28;20194;-79
2022/08/29 01:54:39;;;;;;;14.53;6.10;;;;;;;17.78;90.74;101942.66;5009583;28;20202;-80
2022/08/29 01:57:05;;;;;;;14.10;6.50;;;;;;;17.81;90.87;101953.00;5008296;28;20217;-79
2022/08/29 01:59:32;;;;;;;16.43;5.60;;;;;;;17.82;90.58;101944.41;5008446;28;20187;-80
2022/08/29 02:02:10;;;;;;;20.43;6.60;;;;;;;17.82;90.79;101947.84;5015979;28;20246;-80
2022/08/29 02:04:36;;;;;;;12.77;6.33;;;;;;;17.83;91.06;101946.97;5013195;28;20194;-80
2022/08/29 02:07:02;;;;;;;12.50;6.50;;;;;;;17.83;90.86;101946.13;5017873;28;20593;-79
2022/08/29 02:09:29;;;;;;;16.17;7.10;;;;;;;17.84;91.31;101950.44;5009421;28;20677;-80
2022/08/29 02:11:56;;;;;;;17.03;7.07;;;;;;;17.83;91.23;101949.56;5007401;28;20203;-79
2022/08/29 02:14:23;;;;;;;15.10;6.97;;;;;;;17.85;91.08;101945.28;5016978;28;20194;-79
2022/08/29 02:16:49;;;;;;;17.47;7.40;;;;;;;17.83;91.29;101954.75;5022667;28;20255;-80
2022/08/29 02:19:15;;;;;;;14.80;7.33;;;;;;;17.83;91.25;101948.72;5010814;28;20556;-80
2022/08/29 02:21:42;;;;;;;22.50;8.10;;;;;;;17.82;91.66;101950.44;5003482;28;20888;-80
2022/08/29 02:24:08;;;;;;;16.57;7.27;;;;;;;17.84;91.51;101948.75;5016133;28;20191;-79
2022/08/29 02:26:34;;;;;;;21.60;8.50;;;;;;;17.87;91.54;101943.56;5007042;28;20214;-81
2022/08/29 02:29:00;;;;;;;19.53;9.03;;;;;;;17.89;91.14;101949.66;5010741;28;20219;-80
2022/08/29 02:31:26;;;;;;;20.40;8.93;;;;;;;17.93;91.07;101951.41;5004442;28;20661;-80
2022/08/29 02:33:53;;;;;;;19.17;8.97;;;;;;;17.91;91.77;101942.72;5006606;28;20567;-79
2022/08/29 02:36:20;;;;;;;19.13;8.97;;;;;;;17.90;92.17;101943.59;5007921;28;20279;-79
2022/08/29 02:38:46;;;;;;;17.23;7.93;;;;;;;17.89;91.86;101949.66;5006311;28;20479;-78
2022/08/29 02:41:12;;;;;;;21.00;8.13;;;;;;;17.88;91.79;101941.84;5008876;28;20187;-81
2022/08/29 02:43:38;;;;;;;16.67;7.93;;;;;;;17.89;91.62;101941.88;5023855;28;20267;-80
2022/08/29 02:46:03;;;;;;;15.97;8.30;;;;;;;17.88;91.64;101950.50;5015081;28;20265;-80
2022/08/29 02:48:29;;;;;;;18.23;7.87;;;;;;;17.90;91.86;101945.31;5008130;28;20459;-78
2022/08/29 02:50:57;;;;;;;21.60;8.83;;;;;;;17.87;91.70;101945.31;5012918;28;20195;-79
2022/08/29 02:53:27;;;;;;;18.53;8.10;;;;;;;17.88;91.58;101940.13;5023154;28;20607;-80
2022/08/29 02:55:53;;;;;;;16.23;7.77;;;;;;;17.91;91.32;101945.31;5015264;28;20191;-78
2022/08/29 02:58:20;;;;;;;17.23;8.03;;;;;;;17.88;91.68;101934.97;5027934;28;20189;-79
2022/08/29 03:00:46;;;;;;;19.47;8.23;;;;;;;17.87;91.58;101934.94;5024635;28;20246;-79
2022/08/29 03:03:12;;;;;;;18.07;7.83;;;;;;;17.88;91.46;101937.56;5001813;28;20191;-81
2022/08/29 03:05:37;;;;;;;20.73;8.00;;;;;;;17.90;91.60;101938.41;5012559;28;20187;-81
2022/08/29 03:08:06;;;;;;;19.97;8.23;;;;;;;17.90;91.71;101932.34;5013032;28;20222;-78
2022/08/29 03:10:31;;;;;;;19.77;7.67;;;;;;;17.89;91.65;101939.28;5009603;28;20327;-80
2022/08/29 03:12:57;;;;;;;17.47;8.00;;;;;;;17.88;92.02;101934.97;5012340;28;20215;-79
2022/08/29 03:15:23;;;;;;;18.13;7.90;;;;;;;17.87;91.96;101934.94;4996956;28;20283;-79
2022/08/29 03:17:49;;;;;;;12.37;7.50;;;;;;;17.88;91.71;101941.84;5010700;28;20221;-79
2022/08/29 03:20:19;;;;;;;17.03;7.57;;;;;;;17.86;92.09;101938.34;5020074;28;20187;-79
2022/08/29 03:22:46;;;;;;;19.33;8.20;;;;;;;17.86;92.00;101940.94;5012048;28;20191;-80
2022/08/29 03:25:12;;;;;;;18.30;7.70;;;;;;;17.83;92.05;101934.03;5011611;28;20267;-79
2022/08/29 03:27:38;;;;;;;18.00;7.80;;;;;;;17.84;92.22;101942.69;5027910;28;20246;-80
2022/08/29 03:30:10;;;;;;;15.80;7.97;;;;;;;17.83;92.32;101936.63;5014701;28;20183;-80
2022/08/29 03:32:37;;;;;;;15.20;7.30;;;;;;;17.82;92.64;101937.47;5027022;28;20612;-80
2022/08/29 03:35:03;;;;;;;18.10;7.10;;;;;;;17.84;92.42;101945.28;5013062;28;20183;-78
2022/08/29 03:37:28;;;;;;;16.77;7.07;;;;;;;17.83;92.48;101940.94;5010703;28;20207;-79
2022/08/29 03:39:54;;;;;;;21.53;7.50;;;;;;;17.84;92.41;101945.28;5015438;28;20206;-79
2022/08/29 03:42:20;;;;;;;19.17;7.30;;;;;;;17.84;92.15;101938.38;5015760;28;20696;-79
2022/08/29 03:44:46;;;;;;;16.93;7.70;;;;;;;17.84;92.37;101927.13;5016866;28;20206;-81
2022/08/29 03:47:12;;;;;;;17.17;7.67;;;;;;;17.82;92.56;101934.03;5012315;28;20219;-79
2022/08/29 03:49:38;;;;;;;16.10;7.50;;;;;;;17.80;92.53;101934.03;5016900;28;20226;-80
2022/08/29 03:52:04;;;;;;;15.83;6.97;;;;;;;17.74;92.49;101930.50;5015959;28;20583;-79
2022/08/29 03:54:30;;;;;;;21.10;7.27;;;;;;;17.68;92.68;101928.72;5016570;28;20226;-79
2022/08/29 03:56:56;;;;;;;16.87;7.93;;;;;;;17.63;92.97;101921.78;5018276;28;20575;-80
2022/08/29 03:59:22;;;;;;;11.63;6.60;;;;;;;17.60;93.25;101927.78;5016486;28;20579;-80
2022/08/29 04:01:48;;;;;;;20.37;7.33;;;;;;;17.56;93.64;101931.25;5018636;28;20202;-81
2022/08/29 04:07:00;;;;;;;16.20;7.30;;;;;;;17.32;94.16;101936.16;5032366;28;20728;-81
2022/08/29 04:09:27;;;;;;;20.80;7.17;;;;;;;17.27;94.27;101936.97;5015145;28;20230;-81
2022/08/29 04:11:53;;;;;;;18.47;7.33;;;;;;;17.24;93.97;101942.13;5012339;28;20203;-80
2022/08/29 04:14:21;;;;;;;18.17;7.00;;;;;;;17.22;93.92;101943.84;5007607;28;20544;-79
2022/08/29 04:16:49;;;;;;;16.37;6.83;;;;;;;17.19;93.97;101941.19;5015356;28;20261;-81
2022/08/29 04:19:20;;;;;;;19.37;7.43;;;;;;;17.18;94.35;101955.84;5018023;28;20195;-79
2022/08/29 04:21:47;;;;;;;18.80;7.53;;;;;;;17.19;94.37;101949.84;5013117;28;20195;-79
2022/08/29 04:24:18;;;;;;;17.53;6.80;;;;;;;17.19;94.70;101951.56;5016097;28;20191;-79
2022/08/29 04:26:44;;;;;;;17.37;7.07;;;;;;;17.20;94.14;101954.16;5028284;28;20728;-80
2022/08/29 04:29:11;;;;;;;18.33;7.70;;;;;;;17.25;94.27;101954.19;5021326;28;20218;-79
2022/08/29 04:31:38;;;;;;;18.57;7.40;;;;;;;17.28;94.28;101957.72;5013201;28;20252;-78
2022/08/29 04:34:06;;;;;;;16.43;6.60;;;;;;;17.33;94.90;101963.81;5011612;28;20566;-78
2022/08/29 04:36:44;;;;;;;13.27;6.77;;;;;;;17.36;94.98;101960.38;5015474;28;20214;-80
2022/08/29 04:39:10;;;;;;;19.20;7.43;;;;;;;17.39;95.23;101962.97;5014819;28;20369;-79
2022/08/29 04:41:37;;;;;;;14.30;6.97;;;;;;;17.42;95.19;101966.50;5017611;28;20195;-78
2022/08/29 04:44:04;;;;;;;14.27;6.63;;;;;;;17.44;95.29;101969.97;5032336;28;20600;-80
2022/08/29 04:46:30;;;;;;;17.10;7.00;;;;;;;17.45;95.16;101978.63;5021134;28;20211;-79
2022/08/29 04:48:55;;;;;;;14.60;6.50;;;;;;;17.44;94.76;101971.69;5015557;28;20229;-81
2022/08/29 04:51:21;;;;;;;18.10;7.13;;;;;;;17.42;94.79;101969.09;5021168;28;20703;-81
2022/08/29 04:53:48;;;;;;;14.87;6.53;;;;;;;17.42;94.66;101973.41;5012277;28;20243;-79
2022/08/29 04:56:14;;;;;;;15.83;7.07;;;;;;;17.46;94.30;101973.44;5016315;28;20269;-79
2022/08/29 04:58:41;;;;;;;17.20;7.13;;;;;;;17.48;94.19;101982.09;5013838;28;20647;-79
2022/08/29 05:01:07;;;;;;;17.63;7.40;;;;;;;17.47;94.17;101977.78;5013745;28;20278;-80
2022/08/29 05:03:33;;;;;;;18.77;7.67;;;;;;;17.51;94.20;101982.16;5012192;28;20187;-79
2022/08/29 05:06:02;;;;;;;15.57;6.97;;;;;;;17.54;93.91;101978.72;5013326;28;20342;-79
2022/08/29 05:08:28;;;;;;;18.70;7.27;;;;;;;17.56;94.20;101985.66;5026448;28;20261;-79
2022/08/29 05:10:54;;;;;;;15.10;7.40;;;;;;;17.60;94.06;101991.72;5012782;28;20191;-80
2022/08/29 05:13:21;;;;;;;17.03;7.10;;;;;;;17.60;94.10;101987.38;5010593;28;20676;-79
2022/08/29 05:15:46;;;;;;;18.50;7.47;;;;;;;17.63;94.20;101994.31;5011389;28;20199;-79
2022/08/29 05:18:12;;;;;;;11.87;6.97;;;;;;;17.61;94.42;101989.16;5011668;28;20186;-79
2022/08/29 05:20:43;;;;;;;15.83;7.43;;;;;;;17.65;94.61;101983.13;5011102;28;20708;-80
2022/08/29 05:23:08;;;;;;;17.50;7.07;;;;;;;17.66;94.91;101987.47;5012263;28;20211;-80
2022/08/29 05:25:34;;;;;;;17.17;7.63;;;;;;;17.68;94.41;101997.84;4998249;28;20278;-78
2022/08/29 05:28:00;;;;;;;16.17;8.27;;;;;;;17.72;94.28;101991.81;5011606;28;20215;-78
2022/08/29 05:30:25;;;;;;;21.53;8.13;;;;;;;17.71;94.67;102000.44;5010839;28;21003;-80
2022/08/29 05:32:51;;;;;;;18.23;8.23;;;;;;;17.73;94.64;101998.75;5010277;28;20258;-80
2022/08/29 05:35:17;;;;;;;19.57;8.70;;;;;;;17.73;94.62;102007.38;5012006;28;20241;-79
2022/08/29 05:37:43;;;;;;;17.27;7.50;;;;;;;17.76;94.59;101997.03;5010973;28;20204;-79
2022/08/29 05:40:08;;;;;;;19.30;8.43;;;;;;;17.79;94.99;102009.16;4995223;28;20254;-79
2022/08/29 05:42:34;;;;;;;18.63;8.27;;;;;;;17.78;94.76;102013.47;5008090;28;20275;-78
2022/08/29 05:45:02;;;;;;;17.93;8.13;;;;;;;17.79;95.39;102015.22;5008209;28;20210;-77
2022/08/29 05:47:29;;;;;;;16.67;8.83;;;;;;;17.79;95.41;102022.13;5006111;28;20218;-77
2022/08/29 05:49:55;;;;;;;23.83;9.17;;;;;;;17.80;95.50;102021.25;5023014;28;20215;-78
2022/08/29 05:52:21;;;;;;;19.50;8.93;;;;;;;17.86;95.31;102024.78;4996339;28;20183;-79
2022/08/29 05:54:46;;;;;;;16.87;8.80;;;;;;;17.91;95.21;102020.50;5018386;28;20791;-78
2022/08/29 05:57:15;;;;;;;13.83;7.87;;;;;;;17.95;94.91;102021.38;5004796;28;20207;-78
2022/08/29 05:59:40;;;;;;;15.50;8.20;;;;;;;17.99;95.13;102020.56;5009072;28;20275;-78
2022/08/29 06:02:08;;;;;;;12.27;7.70;;;;;;;18.03;94.24;102015.41;4992635;28;20666;-79
2022/08/29 06:04:34;;;;;;;11.57;7.87;;;;;;;18.04;93.30;102017.16;5014704;28;20188;-78
2022/08/29 06:07:00;;;;;;;10.90;7.50;;;;;;;18.06;93.27;102014.56;5004275;28;20705;-80
2022/08/29 06:09:27;;;;;;;10.17;7.00;;;;;;;18.09;92.76;102018.06;5017888;28;20222;-79
2022/08/29 06:11:53;;;;;;;12.37;7.90;;;;;;;18.11;91.91;102021.53;5001154;28;20245;-78
2022/08/29 06:14:19;;;;;;;8.47;6.70;;;;;;;18.23;91.12;102018.16;5016751;28;20191;-79
2022/08/29 06:16:44;;;;;;;10.40;7.37;;;;;;;18.49;89.95;102019.22;4989270;28;20712;-75
2022/08/29 06:19:11;;;;;;;10.67;6.80;;;;;;;18.65;89.83;102028.84;5001601;28;20270;-78
2022/08/29 06:21:37;;;;;;;11.23;6.87;;;;;;;18.65;88.94;102029.69;5000726;28;20188;-79
2022/08/29 06:24:03;;;;;;;7.90;6.23;;;;;;;18.63;88.08;102022.75;5003093;28;20191;-79
2022/08/29 06:26:30;;;;;;;8.17;5.50;;;;;;;18.63;87.15;102030.53;5003363;28;20211;-79
2022/08/29 06:28:56;;;;;;;6.23;5.27;;;;;;;18.69;86.82;102030.56;5022328;28;20709;-78
2022/08/29 06:31:27;;;;;;;5.67;4.57;;;;;;;18.70;85.47;102032.34;5006716;28;20198;-80
2022/08/29 06:33:58;;;;;;;4.40;4.00;;;;;;;18.68;84.28;102028.84;5007155;28;20187;-78
2022/08/29 06:36:25;;;;;;;5.20;3.70;;;;;;;18.89;83.73;102034.16;5009987;28;20754;-80
2022/08/29 06:38:53;;;;;;;4.00;3.40;;;;;;;19.47;81.84;102037.00;5018538;28;20183;-78
2022/08/29 06:41:19;;;;;;;5.50;4.17;;;;;;;19.35;80.85;102039.53;5010191;28;20191;-79
2022/08/29 06:43:44;;;;;;;5.47;3.70;;;;;;;19.35;80.75;102033.50;5003260;28;20198;-79
2022/08/29 06:46:23;;;;;;;4.30;3.50;;;;;;;19.83;80.34;102036.16;5007206;28;20207;-79
2022/08/29 06:48:49;;;;;;;4.37;3.40;;;;;;;20.33;78.42;102026.66;5002420;28;20375;-79
2022/08/29 06:51:15;;;;;;;6.07;4.50;;;;;;;20.57;76.96;102029.19;5005280;28;20214;-80
2022/08/29 06:53:40;;;;;;;7.37;4.07;;;;;;;20.62;76.63;102028.34;5001278;28;20187;-79
2022/08/29 06:56:07;;;;;;;7.40;4.70;;;;;;;20.71;76.49;102027.44;4992150;28;20206;-78
2022/08/29 06:58:33;;;;;;;8.63;4.40;;;;;;;20.64;76.80;102023.13;5002156;28;20183;-80
2022/08/29 07:01:05;;;;;;;8.93;4.67;;;;;;;20.57;76.45;102029.19;5017582;28;20202;-80
2022/08/29 07:03:31;;;;;;;5.03;4.00;;;;;;;20.41;77.61;102030.97;5018547;28;20191;-79
2022/08/29 07:05:56;;;;;;;4.40;4.00;;;;;;;20.49;77.23;102028.38;5003602;28;20573;-79
2022/08/29 07:08:22;;;;;;;6.40;4.17;;;;;;;20.58;76.42;102025.72;5018999;28;20249;-79
2022/08/29 07:10:48;;;;;;;4.57;3.90;;;;;;;20.38;76.16;102024.91;5005139;28;20192;-80
2022/08/29 07:13:13;;;;;;;6.30;3.77;;;;;;;20.39;75.36;102027.50;5005410;28;20187;-79
2022/08/29 07:15:39;;;;;;;4.93;3.97;;;;;;;20.31;77.29;102036.22;5008820;28;20215;-79
2022/08/29 07:18:04;;;;;;;3.83;3.40;;;;;;;20.26;76.64;102032.75;5011536;28;20206;-79
2022/08/29 07:20:29;;;;;;;6.53;3.70;;;;;;;20.36;76.52;102035.31;5007686;28;20202;-79
2022/08/29 07:22:55;;;;;;;5.47;3.10;;;;;;;20.88;74.23;102031.75;5022164;28;20219;-77
2022/08/29 07:25:21;;;;;;;5.10;3.00;;;;;;;21.17;72.82;102036.84;5024615;28;20187;-79
2022/08/29 07:27:48;;;;;;;4.93;2.90;;;;;;;21.15;74.08;102030.78;4984971;28;20573;-79
2022/08/29 07:30:15;;;;;;;2.87;2.63;;;;;;;20.98;73.50;102032.59;5006197;28;20183;-79
2022/08/29 07:32:44;;;;;;;3.37;2.43;;;;;;;21.07;73.43;102043.84;5010405;28;20200;-79
2022/08/29 07:35:15;;;;;;;2.63;2.17;;;;;;;21.96;70.41;102032.88;5007614;28;20218;-79
2022/08/29 07:37:41;;;;;;;2.13;1.80;;;;;;;22.38;67.68;102033.38;5010651;28;20302;-78
2022/08/29 07:40:08;;;;;;;2.03;1.70;;;;;;;22.46;67.63;102027.25;5018839;28;20622;-79
2022/08/29 07:42:35;;;;;;;2.30;1.60;;;;;;;22.58;65.45;102033.19;5009355;28;20225;-78
2022/08/29 07:45:00;;;;;;;3.37;1.90;;;;;;;23.14;64.44;102022.06;5025721;28;20270;-79
2022/08/29 07:47:27;;;;;;;2.15;1.60;;;;;;;23.54;63.89;102024.16;5011089;28;20224;-80
2022/08/29 07:49:53;;;;;;;1.98;1.60;;;;;;;23.48;62.48;102031.22;5024784;28;20246;-80
2022/08/29 07:52:19;;;;;;;1.83;1.50;;;;;;;23.64;61.47;102036.22;5014165;28;20484;-78
2022/08/29 07:54:44;;;;;;;2.38;1.50;;;;;;;23.59;62.48;102039.78;5010100;28;20201;-78
2022/08/29 07:57:09;;;;;;;1.70;1.60;;;;;;;23.41;61.76;102042.66;5009446;28;20231;-79
2022/08/29 07:59:35;;;;;;;2.95;1.52;;;;;;;22.97;62.59;102045.78;5012023;28;20653;-78
2022/08/29 08:02:01;;;;;;;3.83;1.70;;;;;;;23.33;62.20;102049.72;5022290;28;20653;-79
2022/08/29 08:04:26;;;;;;;2.60;1.60;;;;;;;23.00;62.96;102050.13;5021750;28;20253;-77
2022/08/29 08:06:52;;;;;;;1.40;1.30;;;;;;;22.89;62.31;102050.28;5000102;28;20277;-79
2022/08/29 08:09:17;;;;;;;2.80;1.60;;;;;;;22.73;62.99;102059.16;5000611;28;20333;-79
2022/08/29 08:11:43;;;;;;;2.17;1.50;;;;;;;22.88;64.43;102052.91;5027387;28;20547;-78
2022/08/29 08:14:09;;;;;;;2.03;1.50;;;;;;;22.84;63.54;102053.81;4999271;28;20570;-79
2022/08/29 08:16:35;;;;;;;2.10;1.33;;;;;;;22.82;63.17;102051.22;5022856;28;20222;-79
2022/08/29 08:19:01;;;;;;;2.70;1.40;;;;;;;22.86;64.41;102050.31;5029238;28;20194;-78
2022/08/29 08:21:26;;;;;;;1.60;1.50;;;;;;;22.99;63.82;102053.63;5013164;28;20195;-80
2022/08/29 08:23:52;;;;;;;3.60;1.50;;;;;;;23.19;63.09;102065.59;5012470;28;20194;-79
2022/08/29 08:26:18;;;;;;;2.03;1.52;;;;;;;23.35;62.04;102055.81;5027208;28;20274;-79
2022/08/29 08:28:44;;;;;;;3.65;1.73;;;;;;;23.73;61.86;102064.84;5014150;28;20288;-79
2022/08/29 08:31:12;;;;;;;1.97;1.40;;;;;;;23.55;62.19;102056.41;5013006;28;20183;-80
2022/08/29 08:33:38;;;;;;;1.50;1.40;;;;;;;23.29;63.46;102071.59;5012147;28;20728;-78
2022/08/29 08:36:11;;;;;;;2.87;2.00;;;;;;;23.09;62.97;102069.19;5026066;28;20211;-79
2022/08/29 08:38:36;;;;;;;2.63;2.07;;;;;;;23.11;63.16;102069.19;5010435;28;20218;-79
2022/08/29 08:41:09;;;;;;;2.50;2.03;;;;;;;23.11;62.07;102074.41;5012077;28;20211;-78
2022/08/29 08:43:44;;;;;;;3.43;2.20;;;;;;;23.09;62.88;102063.09;5012334;28;20195;-79
2022/08/29 08:46:10;;;;;;;2.13;1.80;;;;;;;23.02;63.26;102071.91;5011185;28;20206;-79
2022/08/29 08:48:38;;;;;;;3.27;1.80;;;;;;;23.14;62.77;102070.00;5011178;28;20223;-80
2022/08/29 08:51:20;;;;;;;4.55;2.00;;;;;;;23.35;62.91;102059.31;5026471;28;20184;-80
2022/08/29 08:53:49;;;;;;;2.23;1.60;;;;;;;23.38;61.69;102063.63;5025277;28;20230;-81
2022/08/29 08:56:30;;;;;;;3.28;1.80;;;;;;;23.48;61.78;102066.06;5017647;28;20214;-80
2022/08/29 08:59:05;;;;;;;2.55;1.60;;;;;;;23.41;62.04;102071.41;5009995;28;20187;-80
2022/08/29 09:01:38;;;;;;;3.03;2.00;;;;;;;23.48;62.20;102071.31;4998394;28;20249;-79
2022/08/29 09:04:22;;;;;;;1.90;1.80;;;;;;;23.44;61.80;102077.47;5019963;28;20183;-80
2022/08/29 09:07:00;;;;;;;3.17;1.52;;;;;;;23.64;60.90;102078.06;5002459;28;20214;-79
2022/08/29 09:09:34;;;;;;;1.88;1.30;;;;;;;23.59;60.68;102076.41;4997794;28;20230;-80
2022/08/29 09:12:20;;;;;;;2.80;1.52;;;;;;;23.62;61.77;102071.97;5008903;28;20194;-78
2022/08/29 09:15:00;;;;;;;2.25;1.60;;;;;;;23.55;61.22;102079.94;5013495;28;20191;-78
2022/08/29 09:17:40;;;;;;;1.88;1.40;;;;;;;23.42;61.92;102070.53;5007339;28;20243;-79
2022/08/29 09:20:12;;;;;;;1.38;1.27;;;;;;;23.76;60.11;102072.63;5011750;28;20207;-81
2022/08/29 09:22:39;;;;;;;2.42;1.50;;;;;;;23.94;60.01;102074.16;5023174;28;20199;-80
2022/08/29 09:25:09;;;;;;;3.90;1.27;;;;;;;24.48;57.49;102070.59;5030384;28;20191;-79
2022/08/29 09:27:36;;;;;;;1.70;1.17;;;;;;;24.13;57.40;102067.75;5013550;28;20206;-79
2022/08/29 09:30:07;;;;;;;1.55;1.45;;;;;;;23.98;58.27;102066.22;5008488;28;20296;-79
2022/08/29 09:32:49;;;;;;;1.92;1.30;;;;;;;23.95;58.37;102068.03;5020369;28;20665;-79
2022/08/29 09:35:25;;;;;;;1.58;1.30;;;;;;;25.17;56.77;102066.66;5014588;28;20194;-77
2022/08/29 09:38:13;;;;;;;3.10;1.40;;;;;;;25.23;55.60;102063.91;4996964;28;20218;-78
2022/08/29 09:40:50;;;;;;;5.45;1.40;;;;;;;25.45;54.81;102058.19;5008634;28;20677;-79
2022/08/29 09:43:43;;;;;;;3.03;1.27;;;;;;;24.94;55.08;102066.25;4984317;28;20187;-79
2022/08/29 09:46:19;;;;;;;1.95;1.45;;;;;;;25.30;54.65;102069.03;5001972;28;20204;-77
2022/08/29 09:48:49;;;;;;;1.27;1.10;;;;;;;25.92;52.03;102067.59;5013248;28;20206;-78
2022/08/29 09:51:25;;;;;;;3.05;1.52;;;;;;;25.56;51.95;102071.91;5012164;28;20195;-78
2022/08/29 09:53:53;;;;;;;1.30;1.02;;;;;;;25.89;52.19;102071.16;5010375;28;20704;-77
2022/08/29 09:56:24;;;;;;;2.25;1.20;;;;;;;25.78;51.74;102069.69;4998563;28;20792;-79
2022/08/29 09:59:04;;;;;;;1.30;0.85;;;;;;;26.02;52.08;102064.72;5012610;28;20194;-78
2022/08/29 10:01:33;;;;;;;2.03;1.45;;;;;;;26.21;50.60;102073.03;5011380;28;20214;-80
2022/08/29 10:04:02;;;;;;;3.25;1.20;;;;;;;26.05;51.78;102071.66;5013239;28;20186;-80
2022/08/29 10:06:31;;;;;;;1.80;1.10;;;;;;;26.96;49.46;102076.28;5012816;28;20209;-78
2022/08/29 10:09:09;;;;;;;1.05;1.00;;;;;;;26.74;50.61;102077.75;5013545;28;20225;-80
2022/08/29 10:11:52;;;;;;;1.63;1.30;;;;;;;27.28;49.30;102071.84;5027237;28;20215;-78
2022/08/29 10:14:33;;;;;;;1.58;1.20;;;;;;;26.39;50.04;102078.66;5028924;28;20257;-78
2022/08/29 10:20:09;;;;;;;2.03;1.38;;;;;;;25.39;53.51;102079.31;5012405;28;20719;-77
2022/08/29 10:22:40;;;;;;;1.65;1.33;;;;;;;25.32;53.49;102085.59;5012710;28;20270;-78
2022/08/29 10:25:33;;;;;;;1.50;1.38;;;;;;;25.33;53.39;102079.44;5011653;28;20215;-79
2022/08/29 10:28:32;;;;;;;2.35;1.30;;;;;;;26.19;52.59;102073.06;4995663;28;20207;-78
2022/08/29 10:31:18;;;;;;;1.63;1.27;;;;;;;26.58;50.23;102079.09;5010481;28;20197;-79
2022/08/29 10:34:00;;;;;;;1.38;1.20;;;;;;;26.84;50.05;102071.38;5010395;28;20203;-79
2022/08/29 10:36:32;;;;;;;1.92;1.20;;;;;;;26.26;50.93;102077.28;5013906;28;20762;-78
2022/08/29 10:39:03;;;;;;;1.10;1.00;;;;;;;26.22;50.46;102078.25;5011750;28;20198;-78
2022/08/29 10:41:37;;;;;;;1.30;1.17;;;;;;;25.81;50.49;102080.09;5013936;28;20187;-78
2022/08/29 10:44:16;;;;;;;1.63;1.10;;;;;;;26.32;49.68;102078.88;5016563;28;20222;-79
2022/08/29 10:47:13;;;;;;;2.08;1.10;;;;;;;27.14;48.42;102075.75;5008207;28;20249;-81
2022/08/29 10:50:16;;;;;;;1.17;1.00;;;;;;;26.65;48.77;102081.50;5000307;28;20217;-78
2022/08/29 10:53:12;;;;;;;2.15;0.90;;;;;;;26.35;48.20;102070.91;5004962;28;20730;-80
2022/08/29 10:55:44;;;;;;;0.98;0.90;;;;;;;26.04;50.07;102081.34;5024083;28;20215;-79
2022/08/29 10:58:32;;;;;;;0.90;0.80;;;;;;;25.79;51.20;102081.91;5018618;28;20202;-79
2022/08/29 11:01:10;;;;;;;1.00;0.90;;;;;;;25.61;51.88;102087.59;5005195;28;20225;-79
2022/08/29 11:03:40;;;;;;;3.47;1.40;;;;;;;25.59;51.86;102085.00;5026977;28;20194;-78
2022/08/29 11:06:08;;;;;;;2.17;1.10;;;;;;;25.36;51.96;102089.00;5022978;28;20210;-79
2022/08/29 11:08:41;;;;;;;2.08;1.05;;;;;;;25.41;51.98;102092.41;5016972;28;20643;-78
2022/08/29 11:11:07;;;;;;;1.05;0.90;;;;;;;25.37;52.15;102093.38;4994649;28;20270;-79
2022/08/29 11:13:44;;;;;;;1.23;1.10;;;;;;;25.35;51.80;102090.78;5003878;28;20237;-78
2022/08/29 11:16:37;;;;;;;2.13;1.00;;;;;;;25.82;51.44;102092.31;5013504;28;20297;-78
2022/08/29 11:19:27;;;;;;;0.93;0.90;;;;;;;26.19;51.15;102088.81;5006775;28;20242;-79
2022/08/29 11:22:17;;;;;;;2.42;0.90;;;;;;;25.88;49.99;102087.78;5005590;28;20183;-78
2022/08/29 11:24:44;;;;;;;0.85;0.70;;;;;;;25.80;50.30;102091.50;5024026;28;20466;-79
2022/08/29 11:27:18;;;;;;;1.23;1.00;;;;;;;25.61;51.51;102091.09;5010880;28;20217;-78
2022/08/29 11:29:47;;;;;;;3.95;1.10;;;;;;;25.37;51.32;102098.63;5008538;28;20226;-78
2022/08/29 11:32:34;;;;;;;1.00;0.93;;;;;;;25.23;52.95;102098.00;4994214;28;20245;-78
2022/08/29 11:35:05;;;;;;;1.33;1.00;;;;;;;24.80;53.91;102099.72;5008018;28;20691;-77
2022/08/29 11:37:46;;;;;;;0.95;0.93;;;;;;;25.00;54.16;102100.22;5009795;28;20666;-78
2022/08/29 11:40:36;;;;;;;1.73;0.88;;;;;;;25.19;53.69;102112.94;4999156;28;20191;-78